Time;durP1;ratioP1;P1;durP2;ratioP2;P2;SDS_P1;SDS_P2;PMS_P1;PMS_P2;Temp;Humidity;BMP_temperature;BMP_pressure;BME280_temperature;BME280_humidity;BME280_pressure;Samples;Min_cycle;Max_cycle;Signal;HPM_P1;HPM_P2
2022/07/09 00:01:26;;;;;;;7.60;4.60;;;;;;;;;;5114090;28;20029;-78
2022/07/09 00:03:52;;;;;;;9.85;4.95;;;;;;;;;;5097851;28;20031;-75
2022/07/09 00:06:18;;;;;;;6.47;4.22;;;;;;;;;;5116301;28;20084;-76
2022/07/09 00:08:44;;;;;;;7.55;4.78;;;;;;;;;;5098269;28;20026;-76
2022/07/09 00:11:10;;;;;;;5.40;4.88;;;;;;;;;;5116054;28;20031;-75
2022/07/09 00:13:36;;;;;;;7.40;4.65;;;;;;;;;;5115780;28;20533;-78
2022/07/09 00:16:02;;;;;;;7.75;4.53;;;;;;;;;;5115992;28;20417;-76
2022/07/09 00:18:29;;;;;;;7.30;4.63;;;;;;;;;;5115886;28;20031;-75
2022/07/09 00:20:55;;;;;;;6.63;4.57;;;;;;;;;;5116044;28;20446;-77
2022/07/09 00:23:21;;;;;;;8.13;4.68;;;;;;;;;;5115167;28;20467;-78
2022/07/09 00:25:47;;;;;;;5.53;3.90;;;;;;;;;;5115918;28;20047;-75
2022/07/09 00:28:13;;;;;;;7.47;4.40;;;;;;;;;;5115635;28;20494;-75
2022/07/09 00:30:39;;;;;;;7.78;4.28;;;;;;;;;;5115872;28;20020;-75
2022/07/09 00:33:05;;;;;;;8.80;4.72;;;;;;;;;;5115252;28;20023;-76
2022/07/09 00:35:31;;;;;;;6.68;4.47;;;;;;;;;;5115739;28;20031;-75
2022/07/09 00:37:57;;;;;;;9.30;4.80;;;;;;;;;;5115561;28;20066;-76
2022/07/09 00:40:24;;;;;;;7.68;4.78;;;;;;;;;;5115526;28;20080;-76
2022/07/09 00:42:50;;;;;;;8.82;4.82;;;;;;;;;;5095883;28;20054;-75
2022/07/09 00:45:17;;;;;;;6.40;4.75;;;;;;;;;;5115651;28;20435;-75
2022/07/09 00:47:43;;;;;;;7.07;4.43;;;;;;;;;;5115353;28;20500;-75
2022/07/09 00:50:10;;;;;;;7.47;4.65;;;;;;;;;;5115247;28;20034;-75
2022/07/09 00:52:37;;;;;;;10.13;5.00;;;;;;;;;;5115550;28;20156;-77
2022/07/09 00:55:03;;;;;;;7.55;4.05;;;;;;;;;;5115363;28;20081;-74
2022/07/09 00:57:30;;;;;;;6.03;4.05;;;;;;;;;;5096726;28;20485;-78
2022/07/09 00:59:58;;;;;;;5.78;4.40;;;;;;;;;;5115119;28;20123;-78
2022/07/09 01:02:24;;;;;;;5.82;4.70;;;;;;;;;;5114877;28;20055;-77
2022/07/09 01:04:50;;;;;;;6.70;4.25;;;;;;;;;;5115144;28;20077;-75
2022/07/09 01:07:16;;;;;;;8.05;4.53;;;;;;;;;;5115107;28;20028;-76
2022/07/09 01:09:42;;;;;;;6.72;4.93;;;;;;;;;;5114997;28;20098;-76
2022/07/09 01:12:08;;;;;;;6.95;4.75;;;;;;;;;;5095952;28;20039;-76
2022/07/09 01:14:35;;;;;;;7.15;5.05;;;;;;;;;;5114943;28;20031;-77
2022/07/09 01:17:02;;;;;;;9.32;5.38;;;;;;;;;;5096513;28;20393;-76
2022/07/09 01:19:29;;;;;;;6.60;4.68;;;;;;;;;;5114814;28;20520;-76
2022/07/09 01:21:55;;;;;;;9.25;4.88;;;;;;;;;;5114616;28;20020;-77
2022/07/09 01:24:22;;;;;;;9.02;4.85;;;;;;;;;;5114657;28;20440;-76
2022/07/09 01:26:49;;;;;;;9.60;5.05;;;;;;;;;;5114699;28;20016;-76
2022/07/09 01:29:15;;;;;;;8.02;5.15;;;;;;;;;;5096340;28;20119;-77
2022/07/09 01:31:41;;;;;;;11.30;6.93;;;;;;;;;;5114717;28;20487;-77
2022/07/09 01:34:07;;;;;;;7.90;6.03;;;;;;;;;;5113953;28;20034;-79
2022/07/09 01:36:33;;;;;;;10.45;5.75;;;;;;;;;;5113512;28;20015;-79
2022/07/09 01:39:00;;;;;;;11.07;6.55;;;;;;;;;;5114476;28;20019;-78
2022/07/09 01:41:26;;;;;;;10.55;6.05;;;;;;;;;;5114348;28;20020;-77
2022/07/09 01:43:52;;;;;;;9.85;6.60;;;;;;;;;;5114353;28;20489;-76
2022/07/09 01:46:18;;;;;;;7.75;5.85;;;;;;;;;;5114262;28;20080;-77
2022/07/09 01:48:44;;;;;;;7.55;4.68;;;;;;;;;;5114111;28;20024;-79
2022/07/09 01:51:10;;;;;;;11.48;4.35;;;;;;;;;;5114180;28;20026;-76
2022/07/09 01:53:37;;;;;;;6.32;4.15;;;;;;;;;;5114203;28;20042;-77
2022/07/09 01:56:07;;;;;;;9.45;4.10;;;;;;;;;;5114065;28;20016;-76
2022/07/09 01:58:33;;;;;;;7.20;3.90;;;;;;;;;;5114007;28;20092;-77
2022/07/09 02:00:59;;;;;;;5.65;4.20;;;;;;;;;;5114121;28;20035;-81
2022/07/09 02:03:25;;;;;;;7.35;4.03;;;;;;;;;;5113705;28;20024;-79
2022/07/09 02:05:51;;;;;;;7.53;4.40;;;;;;;;;;5114021;28;20031;-77
2022/07/09 02:08:17;;;;;;;7.07;4.07;;;;;;;;;;5113865;28;20031;-77
2022/07/09 02:10:43;;;;;;;7.65;3.90;;;;;;;;;;5113788;28;20535;-76
2022/07/09 02:13:09;;;;;;;8.75;4.15;;;;;;;;;;5113546;28;20070;-77
2022/07/09 02:15:35;;;;;;;9.23;5.10;;;;;;;;;;5113712;28;20024;-76
2022/07/09 02:18:01;;;;;;;7.90;4.63;;;;;;;;;;5095555;28;20084;-76
2022/07/09 02:20:27;;;;;;;8.40;3.92;;;;;;;;;;5113676;28;20027;-74
2022/07/09 02:22:54;;;;;;;6.22;4.15;;;;;;;;;;5113728;28;20028;-81
2022/07/09 02:25:20;;;;;;;8.65;3.83;;;;;;;;;;5113659;28;20396;-76
2022/07/09 02:27:46;;;;;;;6.82;4.40;;;;;;;;;;5113689;28;20084;-76
2022/07/09 02:30:12;;;;;;;6.82;3.85;;;;;;;;;;5113394;28;20068;-73
2022/07/09 02:32:39;;;;;;;6.78;3.92;;;;;;;;;;5113044;28;20024;-74
2022/07/09 02:35:05;;;;;;;6.82;4.13;;;;;;;;;;5113677;28;20119;-74
2022/07/09 02:37:32;;;;;;;6.93;4.50;;;;;;;;;;5113512;28;20043;-75
2022/07/09 02:39:58;;;;;;;6.57;3.75;;;;;;;;;;5113372;28;20023;-75
2022/07/09 02:42:24;;;;;;;10.15;4.07;;;;;;;;;;5113348;28;20046;-75
2022/07/09 02:44:50;;;;;;;6.53;3.92;;;;;;;;;;5113534;28;20027;-75
2022/07/09 02:47:16;;;;;;;4.55;3.70;;;;;;;;;;5112907;28;20016;-75
2022/07/09 02:49:42;;;;;;;5.22;3.67;;;;;;;;;;5113215;28;20388;-73
2022/07/09 02:52:09;;;;;;;6.60;3.85;;;;;;;;;;5113269;28;20031;-75
2022/07/09 02:54:35;;;;;;;6.97;3.80;;;;;;;;;;5113303;28;20362;-74
2022/07/09 02:57:01;;;;;;;6.40;4.20;;;;;;;;;;5113459;28;20020;-76
2022/07/09 02:59:27;;;;;;;8.90;3.60;;;;;;;;;;5113233;28;20034;-75
2022/07/09 03:01:53;;;;;;;6.30;3.80;;;;;;;;;;5113282;28;20023;-75
2022/07/09 03:04:19;;;;;;;9.05;4.65;;;;;;;;;;5112924;28;20020;-76
2022/07/09 03:06:45;;;;;;;6.43;3.88;;;;;;;;;;5113296;28;20073;-75
2022/07/09 03:09:12;;;;;;;5.50;3.85;;;;;;;;;;5113311;28;20397;-75
2022/07/09 03:11:38;;;;;;;6.30;4.35;;;;;;;;;;5113166;28;20051;-76
2022/07/09 03:14:05;;;;;;;7.53;3.80;;;;;;;;;;5112947;28;20093;-75
2022/07/09 03:16:31;;;;;;;6.22;4.10;;;;;;;;;;5113112;28;20023;-77
2022/07/09 03:18:57;;;;;;;6.32;4.03;;;;;;;;;;5113000;28;20484;-76
2022/07/09 03:21:23;;;;;;;7.38;4.18;;;;;;;;;;5113291;28;20020;-78
2022/07/09 03:23:49;;;;;;;8.93;4.18;;;;;;;;;;5113141;28;20024;-77
2022/07/09 03:26:15;;;;;;;6.88;4.13;;;;;;;;;;5113054;28;20020;-78
2022/07/09 03:28:41;;;;;;;6.18;3.20;;;;;;;;;;5113056;28;20023;-76
2022/07/09 03:31:07;;;;;;;6.30;4.13;;;;;;;;;;5112928;28;20481;-77
2022/07/09 03:33:33;;;;;;;6.25;3.95;;;;;;;;;;5112748;28;20374;-74
2022/07/09 03:35:59;;;;;;;7.65;4.05;;;;;;;;;;5112831;28;20023;-78
2022/07/09 03:38:25;;;;;;;6.70;3.92;;;;;;;;;;5113017;28;20024;-77
2022/07/09 03:40:52;;;;;;;8.63;4.00;;;;;;;;;;5112901;28;20019;-80
2022/07/09 03:43:19;;;;;;;5.53;4.43;;;;;;;;;;5112794;28;20027;-77
2022/07/09 03:45:45;;;;;;;6.43;4.43;;;;;;;;;;5112789;28;20032;-81
2022/07/09 03:48:11;;;;;;;7.18;4.28;;;;;;;;;;5112669;28;20470;-78
2022/07/09 03:50:37;;;;;;;6.47;4.03;;;;;;;;;;5112815;28;20024;-80
2022/07/09 03:53:03;;;;;;;5.38;4.35;;;;;;;;;;5112758;28;20024;-77
2022/07/09 03:55:29;;;;;;;8.60;4.10;;;;;;;;;;5112884;28;20054;-77
2022/07/09 03:57:55;;;;;;;8.15;4.93;;;;;;;;;;5112695;28;20024;-76
2022/07/09 04:00:21;;;;;;;6.15;4.18;;;;;;;;;;5116044;28;20034;-77
2022/07/09 04:02:48;;;;;;;5.97;4.18;;;;;;;;;;5116145;28;20106;-78
2022/07/09 04:05:15;;;;;;;7.70;4.53;;;;;;;;;;5116204;28;20024;-75
2022/07/09 04:07:41;;;;;;;7.10;4.45;;;;;;;;;;5116284;28;20024;-74
2022/07/09 04:10:08;;;;;;;6.55;4.70;;;;;;;;;;5116184;28;20385;-77
2022/07/09 04:12:34;;;;;;;6.88;4.65;;;;;;;;;;5115845;28;20386;-76
2022/07/09 04:15:00;;;;;;;4.95;3.78;;;;;;;;;;5116131;28;20032;-76
2022/07/09 04:17:26;;;;;;;10.43;5.07;;;;;;;;;;5116077;28;20076;-75
2022/07/09 04:19:52;;;;;;;5.43;4.40;;;;;;;;;;5115949;28;20039;-73
2022/07/09 04:22:18;;;;;;;5.57;4.07;;;;;;;;;;5116005;28;20423;-77
2022/07/09 04:24:44;;;;;;;7.60;4.50;;;;;;;;;;5097316;28;20137;-77
2022/07/09 04:27:10;;;;;;;7.75;4.38;;;;;;;;;;5115954;28;20016;-77
2022/07/09 04:29:36;;;;;;;6.72;4.45;;;;;;;;;;5115841;28;20028;-76
2022/07/09 04:32:02;;;;;;;5.97;4.38;;;;;;;;;;5115271;28;20030;-76
2022/07/09 04:34:28;;;;;;;6.80;4.82;;;;;;;;;;5115549;28;20550;-76
2022/07/09 04:36:54;;;;;;;8.32;4.78;;;;;;;;;;5115750;28;20028;-76
2022/07/09 04:39:24;;;;;;;7.63;5.10;;;;;;;;;;5115671;28;20558;-75
2022/07/09 04:41:50;;;;;;;5.28;4.20;;;;;;;;;;5115526;28;20031;-76
2022/07/09 04:44:16;;;;;;;6.65;4.72;;;;;;;;;;5115441;28;20062;-77
2022/07/09 04:46:43;;;;;;;6.97;4.35;;;;;;;;;;5115568;28;20546;-75
2022/07/09 04:49:09;;;;;;;6.30;4.63;;;;;;;;;;5115262;28;20062;-77
2022/07/09 04:51:35;;;;;;;8.52;5.03;;;;;;;;;;5115549;28;20500;-76
2022/07/09 04:54:01;;;;;;;5.43;4.50;;;;;;;;;;5115197;28;20114;-78
2022/07/09 04:56:28;;;;;;;6.35;4.70;;;;;;;;;;5115352;28;20023;-77
2022/07/09 04:58:54;;;;;;;9.60;4.95;;;;;;;;;;5115469;28;20032;-77
2022/07/09 05:01:20;;;;;;;4.90;4.40;;;;;;;;;;5115161;28;20027;-75
2022/07/09 05:03:46;;;;;;;6.72;4.78;;;;;;;;;;5114908;28;20031;-77
2022/07/09 05:06:16;;;;;;;6.28;4.75;;;;;;;;;;5115042;28;20020;-77
2022/07/09 05:08:42;;;;;;;7.05;4.63;;;;;;;;;;5115274;28;20504;-76
2022/07/09 05:11:09;;;;;;;6.05;4.40;;;;;;;;;;5114703;28;20024;-77
2022/07/09 05:13:36;;;;;;;6.68;4.65;;;;;;;;;;5114642;28;20519;-80
2022/07/09 05:16:02;;;;;;;7.88;4.75;;;;;;;;;;5114872;28;20035;-79
2022/07/09 05:18:30;;;;;;;5.57;4.10;;;;;;;;;;5114788;28;20097;-79
2022/07/09 05:20:56;;;;;;;5.30;4.10;;;;;;;;;;5114814;28;20473;-79
2022/07/09 05:23:22;;;;;;;7.57;4.30;;;;;;;;;;5115005;28;20427;-76
2022/07/09 05:25:48;;;;;;;6.60;4.43;;;;;;;;;;5114709;28;20099;-78
2022/07/09 05:28:15;;;;;;;11.88;6.70;;;;;;;;;;5114585;28;20098;-78
2022/07/09 05:30:41;;;;;;;6.85;4.63;;;;;;;;;;5114586;28;20012;-77
2022/07/09 05:33:08;;;;;;;8.02;5.18;;;;;;;;;;5114139;28;20111;-77
2022/07/09 05:35:34;;;;;;;13.23;6.93;;;;;;;;;;5114434;28;20081;-75
2022/07/09 05:38:00;;;;;;;8.60;4.60;;;;;;;;;;5096276;28;20062;-78
2022/07/09 05:40:26;;;;;;;5.15;4.60;;;;;;;;;;5114649;28;20491;-79
2022/07/09 05:42:52;;;;;;;8.60;5.30;;;;;;;;;;5114328;28;20080;-80
2022/07/09 05:45:18;;;;;;;7.32;5.15;;;;;;;;;;5112642;28;20106;-75
2022/07/09 05:47:44;;;;;;;5.82;5.00;;;;;;;;;;5105366;28;20028;-78
2022/07/09 05:50:10;;;;;;;6.80;5.03;;;;;;;;;;5098266;28;20031;-76
2022/07/09 05:52:37;;;;;;;7.88;5.20;;;;;;;;;;5102794;28;20020;-76
2022/07/09 05:55:03;;;;;;;13.10;5.65;;;;;;;;;;5093675;28;20027;-78
2022/07/09 05:57:29;;;;;;;6.97;4.80;;;;;;;;;;5093729;28;20024;-77
2022/07/09 05:59:56;;;;;;;5.10;4.60;;;;;;;;;;5075072;28;20096;-78
2022/07/09 06:02:22;;;;;;;7.32;4.97;;;;;;;;;;5095938;28;20021;-75
2022/07/09 06:04:48;;;;;;;7.20;5.25;;;;;;;;;;5111923;28;20470;-77
2022/07/09 06:07:15;;;;;;;6.30;4.50;;;;;;;;;;5102018;28;20024;-77
2022/07/09 06:09:41;;;;;;;5.40;4.78;;;;;;;;;;5113790;28;20157;-79
2022/07/09 06:12:07;;;;;;;18.38;5.20;;;;;;;;;;5113121;28;20027;-78
2022/07/09 06:14:33;;;;;;;15.25;4.28;;;;;;;;;;5113859;28;20035;-75
2022/07/09 06:17:05;;;;;;;17.67;4.85;;;;;;;;;;5113873;28;20473;-79
2022/07/09 06:19:31;;;;;;;8.27;4.50;;;;;;;;;;5112753;28;20023;-72
2022/07/09 06:21:58;;;;;;;7.05;4.68;;;;;;;;;;5112666;28;20073;-76
2022/07/09 06:24:24;;;;;;;9.63;6.03;;;;;;;;;;5111295;28;20027;-77
2022/07/09 06:26:50;;;;;;;6.25;4.15;;;;;;;;;;5112730;28;20102;-77
2022/07/09 06:29:16;;;;;;;6.10;4.25;;;;;;;;;;5113538;28;20072;-76
2022/07/09 06:31:42;;;;;;;10.85;4.43;;;;;;;;;;5113548;28;20383;-76
2022/07/09 06:34:10;;;;;;;5.15;4.00;;;;;;;;;;5112952;28;20042;-75
2022/07/09 06:36:36;;;;;;;8.23;4.90;;;;;;;;;;5113494;28;20016;-77
2022/07/09 06:41:47;;;;;;;6.93;4.60;;;;;;;;;;5113652;28;20086;-78
2022/07/09 06:44:13;;;;;;;11.20;4.70;;;;;;;;;;5113165;28;20058;-77
2022/07/09 06:46:39;;;;;;;5.88;4.05;;;;;;;;;;5113660;28;20381;-77
2022/07/09 06:49:05;;;;;;;7.13;4.53;;;;;;;;;;5113402;28;20024;-77
2022/07/09 06:51:32;;;;;;;9.55;4.40;;;;;;;;;;5094978;28;20059;-77
2022/07/09 06:53:58;;;;;;;6.07;4.30;;;;;;;;;;5113145;28;20153;-76
2022/07/09 06:56:27;;;;;;;6.15;4.47;;;;;;;;;;5113350;28;20466;-76
2022/07/09 06:58:53;;;;;;;6.72;4.32;;;;;;;;;;5113204;28;20537;-77
2022/07/09 07:01:19;;;;;;;7.80;4.82;;;;;;;;;;5113274;28;20024;-77
2022/07/09 07:03:45;;;;;;;7.60;4.57;;;;;;;;;;5113044;28;20046;-76
2022/07/09 07:06:11;;;;;;;7.70;4.13;;;;;;;;;;5113125;28;20118;-76
2022/07/09 07:08:37;;;;;;;6.72;4.53;;;;;;;;;;5113163;28;20045;-76
2022/07/09 07:11:04;;;;;;;5.93;4.68;;;;;;;;;;5113142;28;20023;-77
2022/07/09 07:13:30;;;;;;;11.48;5.18;;;;;;;;;;5113112;28;20069;-75
2022/07/09 07:15:56;;;;;;;6.88;4.63;;;;;;;;;;5112948;28;20051;-78
2022/07/09 07:18:22;;;;;;;8.55;4.05;;;;;;;;;;5113830;28;20032;-76
2022/07/09 07:20:48;;;;;;;6.53;5.80;;;;;;;;;;5113053;28;20026;-78
2022/07/09 07:23:15;;;;;;;8.63;4.07;;;;;;;;;;5113175;28;20103;-78
2022/07/09 07:25:41;;;;;;;6.30;4.28;;;;;;;;;;5094995;28;20442;-79
2022/07/09 07:28:07;;;;;;;6.88;4.18;;;;;;;;;;5113153;28;20019;-79
2022/07/09 07:30:34;;;;;;;5.88;3.78;;;;;;;;;;5113301;28;20027;-78
2022/07/09 07:33:00;;;;;;;10.32;4.13;;;;;;;;;;5114121;28;20127;-79
2022/07/09 07:35:27;;;;;;;6.78;4.00;;;;;;;;;;5117053;28;20016;-79
2022/07/09 07:37:53;;;;;;;6.03;3.83;;;;;;;;;;5116844;28;20034;-78
2022/07/09 07:40:19;;;;;;;6.78;4.60;;;;;;;;;;5116873;28;20019;-78
2022/07/09 07:42:47;;;;;;;8.82;4.20;;;;;;;;;;5117122;28;20031;-76
2022/07/09 07:45:14;;;;;;;7.03;4.18;;;;;;;;;;5116840;28;20031;-77
2022/07/09 07:47:40;;;;;;;5.78;3.75;;;;;;;;;;5116833;28;20065;-79
2022/07/09 07:50:06;;;;;;;6.32;3.65;;;;;;;;;;5116332;28;20106;-79
2022/07/09 07:52:32;;;;;;;6.55;4.18;;;;;;;;;;5116419;28;20067;-78
2022/07/09 07:54:58;;;;;;;6.25;3.88;;;;;;;;;;5116757;28;20027;-77
2022/07/09 07:57:25;;;;;;;11.15;4.88;;;;;;;;;;5116571;28;20540;-79
2022/07/09 07:59:51;;;;;;;8.00;4.55;;;;;;;;;;5116467;28;20055;-77
2022/07/09 08:02:17;;;;;;;8.15;4.70;;;;;;;;;;5116130;28;20046;-77
2022/07/09 08:04:43;;;;;;;8.65;5.55;;;;;;;;;;5116629;28;20388;-79
2022/07/09 08:07:10;;;;;;;6.65;5.00;;;;;;;;;;5116527;28;20019;-78
2022/07/09 08:09:36;;;;;;;7.25;4.20;;;;;;;;;;5116136;28;20023;-79
2022/07/09 08:12:02;;;;;;;6.53;4.15;;;;;;;;;;5116011;28;20024;-79
2022/07/09 08:14:28;;;;;;;9.05;4.18;;;;;;;;;;5115832;28;20509;-78
2022/07/09 08:16:54;;;;;;;10.30;4.18;;;;;;;;;;5116016;28;20385;-78
2022/07/09 08:19:20;;;;;;;5.70;4.43;;;;;;;;;;5116337;28;20488;-79
2022/07/09 08:21:46;;;;;;;6.45;4.50;;;;;;;;;;5116072;28;20030;-79
2022/07/09 08:24:12;;;;;;;6.15;4.15;;;;;;;;;;5115965;28;20610;-75
2022/07/09 08:26:38;;;;;;;10.65;4.50;;;;;;;;;;5115801;28;20023;-74
2022/07/09 08:29:04;;;;;;;8.32;4.00;;;;;;;;;;5115974;28;20430;-75
2022/07/09 08:31:31;;;;;;;11.15;5.10;;;;;;;;;;5116168;28;20024;-76
2022/07/09 08:33:57;;;;;;;9.25;4.35;;;;;;;;;;5115255;28;20073;-76
2022/07/09 08:36:23;;;;;;;8.05;4.32;;;;;;;;;;5115810;28;20448;-74
2022/07/09 08:38:49;;;;;;;5.68;4.20;;;;;;;;;;5115631;28;20027;-74
2022/07/09 08:41:19;;;;;;;9.63;3.97;;;;;;;;;;5115424;28;20059;-74
2022/07/09 08:43:49;;;;;;;6.13;4.32;;;;;;;;;;5115438;28;20031;-75
2022/07/09 08:46:18;;;;;;;7.57;3.80;;;;;;;;;;5114911;28;20604;-75
2022/07/09 08:48:44;;;;;;;8.63;4.78;;;;;;;;;;5115529;28;20032;-75
2022/07/09 08:51:10;;;;;;;9.30;4.38;;;;;;;;;;5115410;28;20027;-75
2022/07/09 08:53:40;;;;;;;8.23;6.43;;;;;;;;;;5115236;28;20168;-71
2022/07/09 08:56:07;;;;;;;8.20;5.28;;;;;;;;;;5115093;28;20024;-75
2022/07/09 08:58:33;;;;;;;8.55;4.68;;;;;;;;;;5115182;28;20027;-74
2022/07/09 09:01:00;;;;;;;7.55;4.28;;;;;;;;;;5115316;28;20112;-73
2022/07/09 09:03:26;;;;;;;6.45;3.83;;;;;;;;;;5114968;28;20068;-74
2022/07/09 09:06:04;;;;;;;7.43;3.67;;;;;;;;;;5114926;28;20027;-75
2022/07/09 09:08:37;;;;;;;8.38;4.43;;;;;;;;;;5115255;28;20024;-77
2022/07/09 09:11:04;;;;;;;9.55;4.13;;;;;;;;;;5115185;28;20035;-74
2022/07/09 09:13:31;;;;;;;9.70;4.80;;;;;;;;;;5114659;28;20464;-75
2022/07/09 09:16:06;;;;;;;8.35;4.30;;;;;;;;;;5114835;28;20027;-73
2022/07/09 09:18:35;;;;;;;10.15;5.72;;;;;;;;;;5114954;28;20030;-75
2022/07/09 09:21:05;;;;;;;8.52;4.90;;;;;;;;;;5114663;28;20077;-74
2022/07/09 09:23:44;;;;;;;8.07;4.72;;;;;;;;;;5097191;28;20043;-77
2022/07/09 09:26:11;;;;;;;10.23;4.60;;;;;;;;;;5114776;28;20019;-75
2022/07/09 09:28:51;;;;;;;10.18;5.78;;;;;;;;;;5114776;28;20023;-77
2022/07/09 09:31:32;;;;;;;5.95;4.82;;;;;;;;;;5096313;28;20023;-76
2022/07/09 09:33:58;;;;;;;;;;;;;;;;;;5114579;28;20050;-73
2022/07/09 09:36:30;;;;;;;10.05;4.65;;;;;;;;;;5114063;28;20276;-71
2022/07/09 09:39:07;;;;;;;8.68;4.32;;;;;;;;;;5114888;28;20023;-74
2022/07/09 09:41:33;;;;;;;7.38;4.00;;;;;;;;;;5114371;28;20027;-73
2022/07/09 09:44:01;;;;;;;6.45;4.22;;;;;;;;;;5114364;28;20024;-72
2022/07/09 09:46:27;;;;;;;7.05;5.25;;;;;;;;;;5114198;28;20023;-71
2022/07/09 09:48:53;;;;;;;8.23;4.57;;;;;;;;;;5114454;28;20027;-72
2022/07/09 09:51:20;;;;;;;5.88;3.45;;;;;;;;;;5114144;28;20024;-73
2022/07/09 09:53:48;;;;;;;6.50;4.15;;;;;;;;;;5114155;28;20396;-72
2022/07/09 09:56:14;;;;;;;9.70;5.32;;;;;;;;;;5113163;28;20024;-72
2022/07/09 09:58:40;;;;;;;8.73;3.95;;;;;;;;;;5113991;28;20059;-72
2022/07/09 10:01:07;;;;;;;13.88;6.43;;;;;;;;;;5114016;28;20032;-72
2022/07/09 10:03:34;;;;;;;5.68;3.40;;;;;;;;;;5113816;28;20105;-74
2022/07/09 10:06:00;;;;;;;9.00;3.70;;;;;;;;;;5113677;28;20076;-73
2022/07/09 10:08:26;;;;;;;5.82;4.07;;;;;;;;;;5113895;28;20110;-77
2022/07/09 10:10:52;;;;;;;8.57;4.75;;;;;;;;;;5113782;28;20042;-75
2022/07/09 10:13:22;;;;;;;7.10;4.00;;;;;;;;;;5095224;28;20048;-72
2022/07/09 10:15:51;;;;;;;4.72;3.72;;;;;;;;;;5113926;28;20055;-73
2022/07/09 10:18:18;;;;;;;5.60;3.72;;;;;;;;;;5113760;28;20027;-76
2022/07/09 10:20:44;;;;;;;6.95;4.05;;;;;;;;;;5113609;28;20016;-73
2022/07/09 10:23:26;;;;;;;7.50;3.80;;;;;;;;;;5114099;28;20024;-76
2022/07/09 10:25:55;;;;;;;5.65;4.00;;;;;;;;;;5113669;28;20054;-75
2022/07/09 10:28:23;;;;;;;6.82;3.97;;;;;;;;;;5113650;28;20438;-72
2022/07/09 10:30:49;;;;;;;7.07;4.70;;;;;;;;;;5113591;28;20110;-73
2022/07/09 10:33:16;;;;;;;11.30;4.20;;;;;;;;;;5095221;28;20074;-72
2022/07/09 10:35:45;;;;;;;6.22;3.95;;;;;;;;;;5113550;28;20019;-72
2022/07/09 10:38:12;;;;;;;7.00;4.32;;;;;;;;;;5113511;28;20038;-73
2022/07/09 10:40:42;;;;;;;4.75;3.88;;;;;;;;;;5113431;28;20102;-72
2022/07/09 10:43:08;;;;;;;7.07;4.47;;;;;;;;;;5113245;28;20349;-72
2022/07/09 10:45:34;;;;;;;6.47;4.07;;;;;;;;;;5113452;28;20028;-75
2022/07/09 10:48:01;;;;;;;6.20;3.92;;;;;;;;;;5112974;28;20035;-73
2022/07/09 10:50:29;;;;;;;6.80;3.95;;;;;;;;;;5113195;28;20028;-74
2022/07/09 10:52:55;;;;;;;6.18;4.28;;;;;;;;;;5113065;28;20027;-75
2022/07/09 10:55:24;;;;;;;11.30;4.63;;;;;;;;;;5113186;28;20028;-73
2022/07/09 10:57:51;;;;;;;9.20;5.03;;;;;;;;;;5113223;28;20080;-72
2022/07/09 11:00:18;;;;;;;5.93;3.90;;;;;;;;;;5113074;28;20115;-71
2022/07/09 11:02:53;;;;;;;11.60;5.30;;;;;;;;;;5112983;28;20016;-71
2022/07/09 11:05:19;;;;;;;10.52;7.20;;;;;;;;;;5113255;28;20480;-75
2022/07/09 11:07:54;;;;;;;7.85;4.85;;;;;;;;;;5114325;28;20059;-76
2022/07/09 11:10:20;;;;;;;6.55;5.10;;;;;;;;;;5117313;28;20039;-73
2022/07/09 11:12:50;;;;;;;7.72;4.53;;;;;;;;;;5098798;28;20047;-73
2022/07/09 11:15:19;;;;;;;6.75;5.03;;;;;;;;;;5117308;28;20027;-74
2022/07/09 11:17:54;;;;;;;6.30;5.25;;;;;;;;;;5117416;28;20072;-71
2022/07/09 11:20:20;;;;;;;6.75;4.30;;;;;;;;;;5117402;28;20384;-72
2022/07/09 11:22:48;;;;;;;6.55;4.57;;;;;;;;;;5116996;28;20533;-73
2022/07/09 11:25:15;;;;;;;9.70;4.38;;;;;;;;;;5117166;28;20389;-71
2022/07/09 11:27:41;;;;;;;6.63;5.18;;;;;;;;;;5098773;28;20035;-73
2022/07/09 11:30:12;;;;;;;6.65;5.05;;;;;;;;;;5116995;28;20027;-72
2022/07/09 11:32:38;;;;;;;11.95;5.93;;;;;;;;;;5116907;28;20524;-73
2022/07/09 11:35:04;;;;;;;8.80;6.32;;;;;;;;;;5116970;28;20037;-76
2022/07/09 11:37:30;;;;;;;6.28;4.55;;;;;;;;;;5116856;28;20035;-74
2022/07/09 11:39:56;;;;;;;9.68;4.80;;;;;;;;;;5116714;28;20496;-72
2022/07/09 11:42:23;;;;;;;6.93;5.25;;;;;;;;;;5116694;28;20054;-74
2022/07/09 11:45:02;;;;;;;6.60;5.03;;;;;;;;;;5116881;28;20437;-76
2022/07/09 11:47:32;;;;;;;11.70;5.80;;;;;;;;;;5116648;28;20015;-79
2022/07/09 11:50:08;;;;;;;8.00;5.35;;;;;;;;;;5116535;28;20020;-73
2022/07/09 11:52:34;;;;;;;5.65;5.07;;;;;;;;;;5116622;28;20434;-76
2022/07/09 11:55:01;;;;;;;8.93;4.40;;;;;;;;;;5098130;28;20092;-72
2022/07/09 11:57:28;;;;;;;8.18;4.32;;;;;;;;;;5116339;28;20031;-76
2022/07/09 11:59:54;;;;;;;6.75;4.28;;;;;;;;;;5116572;28;20506;-72
2022/07/09 12:02:30;;;;;;;7.45;4.30;;;;;;;;;;5116131;28;20096;-74
2022/07/09 12:04:57;;;;;;;4.80;4.00;;;;;;;;;;5116269;28;20085;-77
2022/07/09 12:07:23;;;;;;;4.78;3.88;;;;;;;;;;5116229;28;20016;-72
2022/07/09 12:10:18;;;;;;;4.45;3.20;;;;;;;;;;5116143;28;20026;-74
2022/07/09 12:12:44;;;;;;;5.80;3.80;;;;;;;;;;5013455;28;20038;-71
2022/07/09 12:15:10;;;;;;;6.05;3.70;;;;;;;;;;5013739;28;20030;-71
2022/07/09 12:17:37;;;;;;;9.38;5.95;;;;;;;;;;5013694;28;20045;-73
2022/07/09 12:20:07;;;;;;;7.15;5.53;;;;;;;;;;5012411;28;20026;-73
2022/07/09 12:22:33;;;;;;;7.43;5.25;;;;;;;;;;5013416;28;20459;-77
2022/07/09 12:24:59;;;;;;;4.65;3.60;;;;;;;;;;5013650;28;20037;-74
2022/07/09 12:27:25;;;;;;;5.28;4.07;;;;;;;;;;5013715;28;20026;-75
2022/07/09 12:29:51;;;;;;;5.00;4.07;;;;;;;;;;5013424;28;20088;-77
2022/07/09 12:32:17;;;;;;;7.22;3.78;;;;;;;;;;5012973;28;20064;-77
2022/07/09 12:34:44;;;;;;;4.68;3.53;;;;;;;;;;5013453;28;20045;-78
2022/07/09 12:37:10;;;;;;;6.00;4.40;;;;;;;;;;4996720;28;20169;-77
2022/07/09 12:39:36;;;;;;;5.32;4.18;;;;;;;;;;5013396;28;20037;-78
2022/07/09 12:42:02;;;;;;;6.90;3.38;;;;;;;;;;5013002;28;20049;-77
2022/07/09 12:44:28;;;;;;;13.90;4.10;;;;;;;;;;5013080;28;20045;-78
2022/07/09 12:46:54;;;;;;;4.10;3.60;;;;;;;;;;5012999;28;20109;-78
2022/07/09 12:49:21;;;;;;;6.18;3.63;;;;;;;;;;5074338;28;20515;-79
2022/07/09 12:51:47;;;;;;;6.55;3.70;;;;;;;;;;5115292;28;20099;-78
2022/07/09 12:54:13;;;;;;;4.95;3.20;;;;;;;;;;5115250;28;20521;-78
2022/07/09 12:56:40;;;;;;;9.82;4.68;;;;;;;;;;5115276;28;20470;-73
2022/07/09 12:59:06;;;;;;;7.28;3.97;;;;;;;;;;5115394;28;20050;-76
2022/07/09 13:01:32;;;;;;;7.60;3.75;;;;;;;;;;5115267;28;20020;-76
2022/07/09 13:03:58;;;;;;;5.15;3.20;;;;;;;;;;5115103;28;20421;-76
2022/07/09 13:06:33;;;;;;;5.38;3.97;;;;;;;;;;5115039;28;20016;-75
2022/07/09 13:09:05;;;;;;;5.03;3.50;;;;;;;;;;5115333;28;20024;-79
2022/07/09 13:11:31;;;;;;;3.38;3.03;;;;;;;;;;5114977;28;20019;-78
2022/07/09 13:13:57;;;;;;;9.35;3.58;;;;;;;;;;5114682;28;20047;-78
2022/07/09 13:16:24;;;;;;;6.65;3.45;;;;;;;;;;5114988;28;20035;-78
2022/07/09 13:18:51;;;;;;;5.35;3.25;;;;;;;;;;5114209;28;20028;-76
2022/07/09 13:21:18;;;;;;;5.55;3.45;;;;;;;;;;5114759;28;20483;-77
2022/07/09 13:23:44;;;;;;;8.73;3.97;;;;;;;;;;5114758;28;20023;-78
2022/07/09 13:26:10;;;;;;;6.55;3.25;;;;;;;;;;5108156;28;20024;-76
2022/07/09 13:28:36;;;;;;;6.43;3.72;;;;;;;;;;5116048;28;20024;-73
2022/07/09 13:31:03;;;;;;;6.22;3.10;;;;;;;;;;5114870;28;20027;-73
2022/07/09 13:33:29;;;;;;;3.45;3.15;;;;;;;;;;5107388;28;20077;-75
2022/07/09 13:35:58;;;;;;;66.53;47.13;;;;;;;;;;5094633;28;20061;-73
2022/07/09 13:38:26;;;;;;;46.75;33.38;;;;;;;;;;5095087;28;20131;-78
2022/07/09 13:40:52;;;;;;;107.43;82.65;;;;;;;;;;5095148;28;20504;-75
2022/07/09 13:43:18;;;;;;;70.95;51.83;;;;;;;;;;5094182;28;20025;-77
2022/07/09 13:45:44;;;;;;;41.75;27.88;;;;;;;;;;5075786;28;20036;-78
2022/07/09 13:48:11;;;;;;;40.88;25.10;;;;;;;;;;5093981;28;20020;-77
2022/07/09 13:50:37;;;;;;;38.72;28.48;;;;;;;;;;5094420;28;20066;-77
2022/07/09 13:53:04;;;;;;;39.55;28.88;;;;;;;;;;5093807;28;20077;-77
2022/07/09 13:55:31;;;;;;;67.95;49.28;;;;;;;;;;5094168;28;20024;-78
2022/07/09 13:57:57;;;;;;;28.40;20.38;;;;;;;;;;5094039;28;20024;-78
2022/07/09 14:00:23;;;;;;;89.10;68.95;;;;;;;;;;5093967;28;20028;-76
2022/07/09 14:02:50;;;;;;;43.33;33.47;;;;;;;;;;5098381;28;20026;-74
2022/07/09 14:05:16;;;;;;;32.55;24.15;;;;;;;;;;5114204;28;20143;-77
2022/07/09 14:07:42;;;;;;;24.08;19.60;;;;;;;;;;5113971;28;20043;-76
2022/07/09 14:10:08;;;;;;;24.65;18.63;;;;;;;;;;5114172;28;20023;-71
2022/07/09 14:12:34;;;;;;;34.30;26.38;;;;;;;;;;5113535;28;20070;-76
2022/07/09 14:15:00;;;;;;;13.43;7.80;;;;;;;;;;5114384;28;20046;-78
2022/07/09 14:17:27;;;;;;;19.92;14.77;;;;;;;;;;5113938;28;20020;-76
2022/07/09 14:19:53;;;;;;;26.95;19.88;;;;;;;;;;5113894;28;20357;-73
2022/07/09 14:22:19;;;;;;;13.15;7.00;;;;;;;;;;5113796;28;20019;-74
2022/07/09 14:24:45;;;;;;;9.82;5.28;;;;;;;;;;5113627;28;20027;-76
2022/07/09 14:27:12;;;;;;;6.82;4.82;;;;;;;;;;5113793;28;20027;-77
2022/07/09 14:29:38;;;;;;;10.20;7.20;;;;;;;;;;5113966;28;20024;-79
2022/07/09 14:32:07;;;;;;;8.55;6.35;;;;;;;;;;5113629;28;20020;-79
2022/07/09 14:34:33;;;;;;;12.55;7.13;;;;;;;;;;5113811;28;20035;-72
2022/07/09 14:37:00;;;;;;;9.70;6.25;;;;;;;;;;5113772;28;20027;-79
2022/07/09 14:39:26;;;;;;;8.45;5.47;;;;;;;;;;5113851;28;20030;-79
2022/07/09 14:41:52;;;;;;;8.77;6.30;;;;;;;;;;5113514;28;20035;-77